Time;durP1;ratioP1;P1;durP2;ratioP2;P2;SDS_P1;SDS_P2;PMS_P1;PMS_P2;Temp;Humidity;BMP_temperature;BMP_pressure;BME280_temperature;BME280_humidity;BME280_pressure;Samples;Min_cycle;Max_cycle;Signal;HPM_P1;HPM_P2
2021/07/13 00:00:45;;;;;;;7.47;3.13;;;20.30;86.60;;;;;;4921710;29;19906;-85
2021/07/13 00:03:57;;;;;;;8.27;3.03;;;20.30;86.20;;;;;;4938395;29;20472;-86
2021/07/13 00:09:24;;;;;;;7.18;3.42;;;20.20;86.30;;;;;;4937969;29;20042;-85
2021/07/13 00:12:01;;;;;;;7.50;3.30;;;20.00;86.20;;;;;;4938383;29;20503;-86
2021/07/13 00:14:27;;;;;;;6.70;3.10;;;20.10;86.30;;;;;;4921369;29;20039;-87
2021/07/13 00:16:56;;;;;;;7.60;3.00;;;20.10;86.40;;;;;;4921657;29;20024;-87
2021/07/13 00:19:22;;;;;;;7.05;3.15;;;20.10;86.40;;;;;;4938662;29;20043;-87
2021/07/13 00:21:52;;;;;;;5.90;3.10;;;19.90;86.30;;;;;;4938233;29;20024;-86
2021/07/13 00:24:18;;;;;;;6.15;3.15;;;20.00;86.30;;;;;;4921130;29;20064;-85
2021/07/13 00:26:43;;;;;;;7.07;3.30;;;19.80;86.00;;;;;;4938455;29;20024;-85
2021/07/13 00:29:14;;;;;;;6.18;3.10;;;19.80;86.10;;;;;;4917768;29;20060;-85
2021/07/13 00:31:40;;;;;;;7.00;3.13;;;19.70;86.30;;;;;;4921348;29;20464;-85
2021/07/13 00:34:05;;;;;;;7.00;3.42;;;19.70;86.50;;;;;;4942543;28;20028;-86
2021/07/13 00:36:31;;;;;;;5.82;3.15;;;19.70;86.80;;;;;;4939896;28;20036;-85
2021/07/13 00:38:59;;;;;;;7.07;3.20;;;19.60;86.90;;;;;;4921375;29;20032;-85
2021/07/13 00:41:25;;;;;;;7.07;3.55;;;19.70;87.30;;;;;;4919520;29;20593;-85
2021/07/13 00:43:50;;;;;;;6.80;3.20;;;19.70;87.50;;;;;;4918966;29;20052;-85
2021/07/13 00:46:19;;;;;;;6.47;3.10;;;19.70;87.50;;;;;;4917620;29;20488;-85
2021/07/13 00:48:48;;;;;;;7.40;3.13;;;19.80;87.70;;;;;;4919199;29;20111;-85
2021/07/13 00:51:16;;;;;;;7.47;3.30;;;19.90;87.60;;;;;;4918998;29;20023;-85
2021/07/13 00:53:43;;;;;;;6.93;3.15;;;19.90;87.60;;;;;;4919090;29;20043;-85
2021/07/13 00:56:11;;;;;;;8.10;3.40;;;19.90;87.50;;;;;;4917685;29;20032;-85
2021/07/13 00:58:39;;;;;;;7.15;3.15;;;19.90;87.50;;;;;;4918851;29;20441;-85
2021/07/13 01:01:06;;;;;;;6.30;3.25;;;20.00;87.60;;;;;;4919005;29;20036;-85
2021/07/13 01:03:35;;;;;;;6.93;3.45;;;20.00;87.60;;;;;;4917725;29;20111;-85
2021/07/13 01:06:13;;;;;;;8.55;3.22;;;19.90;87.50;;;;;;4918215;29;20043;-86
2021/07/13 01:09:02;;;;;;;5.68;3.10;;;20.00;87.50;;;;;;4916768;29;20047;-86
2021/07/13 01:11:49;;;;;;;7.43;3.35;;;19.80;87.30;;;;;;4918660;29;20032;-85
2021/07/13 01:14:45;;;;;;;7.13;3.30;;;20.00;87.40;;;;;;4917209;29;20051;-87
2021/07/13 01:17:15;;;;;;;8.63;3.78;;;19.90;87.60;;;;;;4918715;29;20088;-87
2021/07/13 01:20:18;;;;;;;7.20;3.10;;;19.80;87.50;;;;;;4917351;29;20400;-87
2021/07/13 01:22:50;;;;;;;6.95;3.50;;;19.80;87.60;;;;;;4917584;29;20111;-87
2021/07/13 01:25:38;;;;;;;7.53;3.42;;;19.80;87.60;;;;;;4917068;29;20052;-85
2021/07/13 01:28:06;;;;;;;9.35;3.78;;;19.80;87.70;;;;;;4924024;29;20047;-85
2021/07/13 01:30:40;;;;;;;8.50;3.70;;;19.80;88.20;;;;;;4937106;29;20162;-85
2021/07/13 01:33:17;;;;;;;7.65;3.80;;;19.70;87.50;;;;;;4920242;29;20027;-85
2021/07/13 01:35:46;;;;;;;9.10;3.65;;;19.70;87.60;;;;;;4923164;29;20039;-85
2021/07/13 01:38:16;;;;;;;8.02;3.65;;;19.70;88.00;;;;;;4937613;29;20019;-86
2021/07/13 01:40:58;;;;;;;7.10;3.35;;;19.70;88.00;;;;;;4937474;29;20163;-85
2021/07/13 01:43:24;;;;;;;6.78;3.22;;;19.80;88.10;;;;;;4936908;29;20425;-86
2021/07/13 01:45:50;;;;;;;7.68;3.90;;;19.60;87.90;;;;;;4936864;29;20039;-86
2021/07/13 01:48:20;;;;;;;7.63;3.60;;;19.70;87.90;;;;;;4920239;29;20023;-85
2021/07/13 01:50:50;;;;;;;6.70;3.40;;;19.60;87.90;;;;;;4919884;29;20055;-86
2021/07/13 01:53:19;;;;;;;5.65;3.13;;;19.60;88.00;;;;;;4936970;29;20469;-87
2021/07/13 01:55:48;;;;;;;7.70;3.30;;;19.70;88.30;;;;;;4948281;29;20039;-87
2021/07/13 01:59:02;;;;;;;;;;;;;;;;;;;;;
2021/07/13 02:02:02;;;;;;;;;;;;;;;;;;;;;
2021/07/13 02:04:30;;;;;;;6.13;3.00;;;19.80;88.40;;;;;;4937608;29;20027;-87
2021/07/13 02:07:08;;;;;;;7.18;3.20;;;19.80;88.30;;;;;;4919985;29;20433;-87
2021/07/13 02:09:35;;;;;;;6.03;3.17;;;19.70;88.30;;;;;;4919740;29;20042;-86
2021/07/13 02:12:01;;;;;;;6.28;3.30;;;19.70;88.40;;;;;;4936481;29;20095;-86
2021/07/13 02:14:27;;;;;;;6.40;3.15;;;19.70;88.50;;;;;;4919907;29;20038;-87
2021/07/13 02:16:53;;;;;;;7.78;2.90;;;19.80;88.60;;;;;;4919709;29;20028;-86
2021/07/13 02:19:21;;;;;;;7.18;3.08;;;19.70;88.50;;;;;;4919798;29;20042;-87
2021/07/13 02:21:48;;;;;;;5.63;2.97;;;19.80;88.50;;;;;;4936738;29;20024;-86
2021/07/13 02:24:15;;;;;;;6.63;3.05;;;19.80;88.70;;;;;;4936816;29;20058;-86
2021/07/13 02:27:06;;;;;;;6.18;2.92;;;19.80;88.80;;;;;;4936610;29;20071;-86
2021/07/13 02:29:58;;;;;;;6.05;3.05;;;19.80;88.80;;;;;;4929590;29;20052;-87
2021/07/13 02:32:32;;;;;;;5.55;3.00;;;19.80;88.80;;;;;;4936968;29;20024;-86
2021/07/13 02:35:04;;;;;;;6.20;3.05;;;19.90;88.90;;;;;;4926060;29;20026;-86
2021/07/13 02:37:31;;;;;;;6.72;3.35;;;19.90;88.80;;;;;;4923148;29;20071;-86
2021/07/13 02:39:58;;;;;;;6.30;3.50;;;19.90;88.80;;;;;;4940345;29;20070;-86
2021/07/13 02:42:26;;;;;;;6.43;3.20;;;20.00;88.90;;;;;;4940410;29;20024;-87
2021/07/13 02:45:00;;;;;;;8.48;3.40;;;19.90;88.90;;;;;;4940073;29;20107;-87
2021/07/13 02:47:30;;;;;;;6.53;3.25;;;19.90;88.90;;;;;;4923152;29;20115;-87
2021/07/13 02:49:59;;;;;;;5.63;3.20;;;20.00;89.00;;;;;;4922957;29;20040;-87
2021/07/13 02:52:33;;;;;;;6.78;3.53;;;20.00;89.00;;;;;;4923243;29;20028;-87
2021/07/13 02:55:24;;;;;;;7.05;3.10;;;20.00;88.90;;;;;;4939967;29;20027;-87
2021/07/13 02:57:55;;;;;;;6.00;3.17;;;20.00;89.00;;;;;;4922762;29;20086;-87
2021/07/13 03:00:22;;;;;;;7.63;3.95;;;20.00;89.00;;;;;;4922769;29;20032;-86
2021/07/13 03:02:49;;;;;;;7.25;3.40;;;20.00;89.00;;;;;;4922865;29;20031;-88
2021/07/13 03:05:22;;;;;;;7.55;3.58;;;20.10;89.10;;;;;;4939883;29;20111;-86
2021/07/13 03:07:49;;;;;;;6.95;3.28;;;20.00;89.00;;;;;;4939607;29;20023;-86
2021/07/13 03:10:26;;;;;;;6.88;3.45;;;20.00;89.10;;;;;;4939558;29;20031;-86
2021/07/13 03:12:53;;;;;;;8.18;3.67;;;20.00;89.10;;;;;;4939646;29;20032;-85
2021/07/13 03:15:30;;;;;;;7.22;3.20;;;20.00;89.10;;;;;;4939788;29;20027;-86
2021/07/13 03:17:57;;;;;;;7.22;3.67;;;19.90;89.00;;;;;;4939801;29;20023;-86
2021/07/13 03:20:28;;;;;;;9.68;3.80;;;19.90;89.00;;;;;;4946722;28;20019;-85
2021/07/13 03:22:56;;;;;;;7.13;3.50;;;19.90;88.90;;;;;;4959135;28;20035;-86
2021/07/13 03:25:37;;;;;;;13.43;4.80;;;19.90;88.90;;;;;;4924974;29;20477;-87
2021/07/13 03:28:04;;;;;;;10.77;5.07;;;19.80;89.00;;;;;;4919191;29;20047;-85
2021/07/13 03:30:31;;;;;;;11.32;5.15;;;19.80;88.90;;;;;;4918765;29;20040;-84
2021/07/13 03:32:58;;;;;;;11.35;4.70;;;19.70;88.80;;;;;;4920254;29;20032;-85
2021/07/13 03:35:26;;;;;;;11.35;4.70;;;19.70;88.70;;;;;;4922778;29;20516;-85
2021/07/13 03:37:52;;;;;;;8.65;4.30;;;19.60;89.00;;;;;;4920102;29;20071;-86
2021/07/13 03:40:28;;;;;;;8.02;3.90;;;19.60;89.30;;;;;;4919049;29;20030;-85
2021/07/13 03:42:57;;;;;;;8.35;4.32;;;19.60;89.30;;;;;;4918586;29;20403;-86
2021/07/13 03:45:44;;;;;;;7.95;3.95;;;19.60;89.30;;;;;;4934778;29;20021;-86
2021/07/13 03:48:47;;;;;;;9.05;3.92;;;19.60;89.40;;;;;;4918678;29;20043;-87
2021/07/13 03:51:51;;;;;;;;;;;;;;;;;;;;;
2021/07/13 03:54:21;;;;;;;9.65;4.47;;;19.70;89.60;;;;;;4920191;29;20024;-87
2021/07/13 04:07:33;;;;;;;;;;;;;;;;;;;;;
2021/07/13 04:18:46;;;;;;;;;;;;;;;;;;;;;
2021/07/13 04:21:16;;;;;;;8.45;3.97;;;19.60;90.10;;;;;;4862460;29;20030;-89
2021/07/13 04:24:18;;;;;;;9.43;4.15;;;19.60;90.00;;;;;;4861866;29;20490;-88
2021/07/13 04:27:52;;;;;;;;;;;;;;;;;;;;;
2021/07/13 04:30:10;;;;;;;7.88;3.85;;;19.60;90.20;;;;;;4858132;29;20049;-88
2021/07/13 04:36:46;;;;;;;8.73;4.28;;;19.70;90.00;;;;;;4933565;29;20040;-88
2021/07/13 04:39:50;;;;;;;7.90;4.38;;;19.80;90.10;;;;;;4912364;29;20036;-88
2021/07/13 04:43:05;;;;;;;8.77;4.22;;;19.90;90.20;;;;;;4915436;29;20122;-87
2021/07/13 04:45:31;;;;;;;9.85;5.20;;;19.80;90.10;;;;;;4910528;29;20100;-86
2021/07/13 04:47:57;;;;;;;8.88;5.30;;;19.90;90.20;;;;;;4917248;29;20028;-86
2021/07/13 04:51:16;;;;;;;;;;;;;;;;;;;;;
2021/07/13 04:54:34;;;;;;;;;;;;;;;;;;;;;
2021/07/13 04:57:03;;;;;;;8.07;4.00;;;20.00;90.30;;;;;;4916881;29;20024;-87
2021/07/13 04:59:47;;;;;;;8.10;4.40;;;20.20;90.40;;;;;;4918410;29;20484;-87
2021/07/13 05:02:20;;;;;;;10.90;4.47;;;20.30;90.50;;;;;;4917142;29;20036;-87
2021/07/13 05:04:48;;;;;;;9.23;4.50;;;20.30;90.50;;;;;;4917624;29;20126;-87
2021/07/13 05:07:14;;;;;;;8.63;4.18;;;20.40;90.30;;;;;;4918346;29;20052;-87
2021/07/13 05:09:42;;;;;;;8.70;4.55;;;20.50;90.30;;;;;;4918170;29;20068;-87
2021/07/13 05:12:08;;;;;;;7.95;3.85;;;20.50;90.30;;;;;;4916979;29;20480;-87
2021/07/13 05:14:43;;;;;;;8.07;4.22;;;20.60;90.30;;;;;;4916932;29;20035;-87
2021/07/13 05:17:10;;;;;;;7.75;4.03;;;20.60;90.30;;;;;;4916771;29;20102;-84
2021/07/13 05:19:38;;;;;;;7.85;3.95;;;20.70;90.40;;;;;;4916713;29;20024;-84
2021/07/13 05:22:07;;;;;;;7.10;3.70;;;20.70;90.40;;;;;;4917872;29;20470;-84
2021/07/13 05:24:33;;;;;;;7.75;4.10;;;20.80;90.40;;;;;;4918430;29;20016;-84
2021/07/13 05:27:01;;;;;;;7.70;4.05;;;20.90;90.30;;;;;;4916535;29;20214;-84
2021/07/13 05:29:27;;;;;;;6.75;3.67;;;20.90;90.30;;;;;;4916510;29;20055;-84
2021/07/13 05:31:52;;;;;;;8.68;3.92;;;21.00;90.40;;;;;;4916656;29;20441;-85
2021/07/13 05:34:18;;;;;;;6.78;3.60;;;21.10;90.40;;;;;;4917279;29;20036;-83
2021/07/13 05:36:44;;;;;;;7.60;3.90;;;21.10;90.30;;;;;;4919929;29;20099;-85
2021/07/13 05:39:12;;;;;;;6.32;3.17;;;21.10;90.30;;;;;;4916727;29;20046;-85
2021/07/13 05:41:38;;;;;;;8.70;3.90;;;21.10;90.20;;;;;;4917436;29;20032;-84
2021/07/13 05:44:08;;;;;;;7.45;3.67;;;21.20;90.20;;;;;;4917456;29;20040;-85
2021/07/13 05:46:34;;;;;;;8.32;3.70;;;21.10;90.20;;;;;;4917496;29;20027;-85
2021/07/13 05:49:00;;;;;;;8.60;3.50;;;21.30;90.40;;;;;;4915951;29;20577;-85
2021/07/13 05:51:26;;;;;;;6.55;3.55;;;21.30;90.40;;;;;;4917716;29;20099;-85
2021/07/13 05:53:51;;;;;;;8.20;3.47;;;21.50;90.40;;;;;;4917364;29;20039;-85
2021/07/13 05:56:17;;;;;;;6.50;3.53;;;21.50;90.30;;;;;;4917562;29;20031;-85
2021/07/13 05:58:42;;;;;;;7.57;3.67;;;21.50;90.40;;;;;;4917164;29;20032;-86
2021/07/13 06:01:14;;;;;;;8.73;4.10;;;21.50;90.10;;;;;;4916223;29;20048;-85
2021/07/13 06:03:42;;;;;;;6.57;3.40;;;21.60;90.20;;;;;;4916359;29;20100;-86
2021/07/13 06:06:07;;;;;;;7.50;3.35;;;21.60;90.30;;;;;;4916340;29;20441;-85
2021/07/13 06:08:33;;;;;;;6.20;3.30;;;21.70;90.20;;;;;;4917216;29;20035;-85
2021/07/13 06:10:59;;;;;;;7.65;3.22;;;21.70;90.30;;;;;;4916348;29;20074;-85
2021/07/13 06:13:25;;;;;;;7.13;3.17;;;21.80;90.30;;;;;;4916072;29;20466;-85
2021/07/13 06:15:53;;;;;;;6.57;3.53;;;21.80;90.20;;;;;;4917561;29;20063;-85
2021/07/13 06:18:20;;;;;;;7.43;3.13;;;21.90;90.30;;;;;;4917233;29;20039;-82
2021/07/13 06:20:47;;;;;;;7.47;3.20;;;22.00;90.30;;;;;;4916940;29;20024;-85
2021/07/13 06:23:13;;;;;;;7.47;3.45;;;22.00;90.10;;;;;;4917202;29;20056;-85
2021/07/13 06:25:39;;;;;;;8.00;3.50;;;22.00;90.10;;;;;;4917368;29;20103;-86
2021/07/13 06:28:05;;;;;;;7.80;3.58;;;22.00;90.00;;;;;;4930716;29;20063;-86
2021/07/13 06:30:37;;;;;;;8.40;3.15;;;22.00;90.00;;;;;;4950601;29;20487;-86
2021/07/13 06:33:08;;;;;;;7.85;3.55;;;21.90;90.00;;;;;;4935302;29;20123;-86
2021/07/13 06:35:37;;;;;;;9.52;3.75;;;21.90;89.70;;;;;;4928257;29;20039;-84
2021/07/13 06:38:05;;;;;;;7.72;3.58;;;21.90;89.50;;;;;;4917339;29;20028;-88
2021/07/13 06:44:05;;;;;;;8.98;3.97;;;21.80;89.70;;;;;;4886950;29;20036;-84
2021/07/13 06:46:33;;;;;;;6.78;3.40;;;21.80;90.00;;;;;;4931351;29;20028;-84
2021/07/13 06:49:02;;;;;;;8.68;3.40;;;21.80;90.10;;;;;;4931166;29;20044;-85
2021/07/13 06:51:28;;;;;;;8.60;3.40;;;21.80;90.10;;;;;;4916736;29;20540;-85
2021/07/13 06:53:54;;;;;;;6.97;3.35;;;21.80;90.10;;;;;;4915689;29;20036;-85
2021/07/13 06:56:20;;;;;;;7.97;3.22;;;21.90;90.10;;;;;;4917010;29;20020;-86
2021/07/13 06:59:33;;;;;;;6.63;3.38;;;21.90;89.90;;;;;;4915933;29;20060;-85
2021/07/13 07:02:19;;;;;;;7.30;3.35;;;21.90;90.10;;;;;;4926354;29;20032;-89
2021/07/13 07:04:45;;;;;;;7.18;3.20;;;21.90;90.10;;;;;;4935329;29;20039;-83
2021/07/13 07:07:10;;;;;;;8.57;3.15;;;22.00;90.10;;;;;;4919063;29;20028;-83
2021/07/13 07:09:36;;;;;;;8.15;3.60;;;22.00;90.20;;;;;;4935795;29;20117;-83
2021/07/13 07:12:02;;;;;;;6.97;3.35;;;22.10;90.10;;;;;;4950465;29;20028;-83
2021/07/13 07:14:28;;;;;;;7.68;3.45;;;22.10;90.00;;;;;;4932157;29;20032;-84
2021/07/13 07:16:54;;;;;;;6.30;3.00;;;22.10;89.90;;;;;;4934315;29;20028;-85
2021/07/13 07:19:23;;;;;;;7.40;3.42;;;22.10;89.90;;;;;;4937170;29;20388;-85
2021/07/13 07:22:40;;;;;;;;;;;;;;;;;;;;;
2021/07/13 07:36:17;;;;;;;8.18;3.00;;;22.30;90.40;;;;;;5140400;23;20065;-85
2021/07/13 07:38:52;;;;;;;8.15;3.40;;;22.40;90.20;;;;;;4959379;28;20034;-85
2021/07/13 07:41:20;;;;;;;9.55;3.33;;;22.50;90.10;;;;;;4960168;28;20031;-85
2021/07/13 07:43:53;;;;;;;8.80;3.35;;;22.50;90.10;;;;;;4977524;28;20027;-85
2021/07/13 07:46:24;;;;;;;6.07;2.90;;;22.60;90.10;;;;;;4959987;28;20114;-85
2021/07/13 07:48:50;;;;;;;8.93;3.28;;;22.70;90.20;;;;;;4959832;28;20290;-85
2021/07/13 07:51:16;;;;;;;6.25;3.00;;;22.70;90.10;;;;;;4977206;28;20033;-85
2021/07/13 07:53:54;;;;;;;6.15;2.72;;;22.80;90.10;;;;;;4959728;28;20026;-85
2021/07/13 07:56:20;;;;;;;8.13;2.75;;;22.90;90.00;;;;;;4959369;28;20046;-84
2021/07/13 07:58:48;;;;;;;4.75;2.50;;;22.90;90.00;;;;;;4959383;28;20031;-84
2021/07/13 08:04:29;;;;;;;5.32;2.67;;;23.10;90.00;;;;;;4946666;29;20082;-90
2021/07/13 08:06:54;;;;;;;5.70;2.80;;;23.20;90.10;;;;;;4956129;28;20027;-85
2021/07/13 08:09:22;;;;;;;5.18;2.70;;;23.20;90.10;;;;;;4976795;28;20110;-85
2021/07/13 08:11:48;;;;;;;4.75;2.50;;;23.30;90.10;;;;;;4975152;28;20046;-84
2021/07/13 08:14:14;;;;;;;8.73;3.20;;;23.40;90.10;;;;;;4976590;28;20026;-84
2021/07/13 08:16:41;;;;;;;5.20;2.72;;;23.50;89.90;;;;;;4976497;28;20391;-83
2021/07/13 08:19:07;;;;;;;5.95;3.08;;;23.50;89.80;;;;;;4959077;28;20145;-83
2021/07/13 08:21:34;;;;;;;5.82;2.97;;;23.60;89.70;;;;;;4959233;28;20106;-83
2021/07/13 08:23:59;;;;;;;6.20;2.67;;;23.70;90.00;;;;;;4955890;29;20094;-84
2021/07/13 08:26:27;;;;;;;6.28;3.05;;;23.70;90.00;;;;;;4957017;29;20471;-85
2021/07/13 08:28:54;;;;;;;7.00;3.10;;;23.80;90.00;;;;;;4957440;28;20387;-84
2021/07/13 08:34:35;;;;;;;8.15;2.67;;;24.10;90.00;;;;;;4916292;29;20389;-85
2021/07/13 08:37:20;;;;;;;5.95;2.90;;;24.20;89.80;;;;;;4897849;29;20044;-85
2021/07/13 08:39:53;;;;;;;5.30;2.80;;;24.30;89.50;;;;;;4897846;29;20025;-85
2021/07/13 08:42:22;;;;;;;7.40;2.90;;;24.30;89.60;;;;;;4908982;28;20085;-85
2021/07/13 08:44:50;;;;;;;7.55;2.90;;;24.40;89.80;;;;;;4958768;28;20031;-86
2021/07/13 08:47:20;;;;;;;6.40;2.90;;;24.50;89.80;;;;;;4958640;28;20023;-85
2021/07/13 08:49:53;;;;;;;5.10;2.80;;;24.50;89.70;;;;;;4958301;28;20031;-85
2021/07/13 08:52:18;;;;;;;6.32;3.00;;;24.50;89.60;;;;;;4976354;28;20398;-86
2021/07/13 08:55:14;;;;;;;7.47;3.08;;;24.70;90.10;;;;;;4958359;28;20114;-89
2021/07/13 09:00:43;;;;;;;5.38;2.88;;;25.10;90.20;;;;;;4975917;28;20074;-85
2021/07/13 09:03:15;;;;;;;6.80;2.80;;;25.30;90.60;;;;;;4958333;28;20567;-84
2021/07/13 09:05:49;;;;;;;6.50;3.03;;;25.70;91.00;;;;;;4958670;28;20117;-84
2021/07/13 09:08:30;;;;;;;5.30;2.65;;;26.10;91.10;;;;;;4975491;28;20505;-84
2021/07/13 09:11:03;;;;;;;5.38;2.85;;;26.60;91.00;;;;;;4975637;28;20039;-85
2021/07/13 09:13:37;;;;;;;6.00;2.83;;;26.80;90.10;;;;;;4975408;28;20018;-86
2021/07/13 09:16:09;;;;;;;5.13;2.60;;;26.70;88.90;;;;;;4975257;28;20472;-88
2021/07/13 09:18:56;;;;;;;;;;;;;;;;;;;;;
2021/07/13 09:21:24;;;;;;;5.00;2.60;;;26.50;87.90;;;;;;4979367;28;20126;-88
2021/07/13 09:27:34;;;;;;;4.93;2.60;;;26.40;88.70;;;;;;4945171;28;20035;-89
2021/07/13 09:30:14;;;;;;;4.95;2.70;;;26.30;88.80;;;;;;4977652;28;20066;-89
2021/07/13 09:32:40;;;;;;;4.35;2.60;;;26.40;89.00;;;;;;4961523;28;20050;-85
2021/07/13 09:38:41;;;;;;;5.35;2.78;;;26.50;89.90;;;;;;4971747;28;20035;-86
2021/07/13 09:41:21;;;;;;;5.72;2.83;;;26.80;90.10;;;;;;4978500;28;20027;-86
2021/07/13 09:44:11;;;;;;;4.43;2.58;;;27.00;89.50;;;;;;4978577;28;20456;-86
2021/07/13 09:46:50;;;;;;;6.60;2.80;;;27.20;89.80;;;;;;4961250;28;20026;-87
2021/07/13 09:49:27;;;;;;;6.38;2.78;;;27.40;90.00;;;;;;4978587;28;20037;-85
2021/07/13 09:51:57;;;;;;;4.57;2.80;;;27.70;90.00;;;;;;4960493;28;20074;-85
2021/07/13 09:54:49;;;;;;;5.60;3.10;;;27.90;90.50;;;;;;4960577;28;20025;-86
2021/07/13 09:57:18;;;;;;;3.90;2.47;;;28.30;90.50;;;;;;4945374;28;20101;-84
2021/07/13 10:03:35;;;;;;;6.20;3.13;;;29.00;90.00;;;;;;4977287;28;20042;-87
2021/07/13 10:06:31;;;;;;;6.15;3.20;;;29.00;89.10;;;;;;4959015;29;20039;-86
2021/07/13 10:09:11;;;;;;;5.50;3.13;;;29.00;87.80;;;;;;4938909;29;20074;-86
2021/07/13 10:12:18;;;;;;;5.10;2.90;;;29.10;88.30;;;;;;4927407;29;20488;-86
2021/07/13 10:22:54;;;;;;;4.55;2.60;;;29.60;89.30;;;;;;4795571;30;20100;-87
2021/07/13 10:25:55;;;;;;;;;;;;;;;;;;;;;
2021/07/13 10:28:32;;;;;;;4.90;2.65;;;30.20;89.30;;;;;;4791348;30;20122;-84
2021/07/13 10:31:14;;;;;;;;;;;;;;;;;;;;;
2021/07/13 10:33:58;;;;;;;5.28;2.72;;;30.40;87.20;;;;;;4900557;29;20088;-86
2021/07/13 10:36:32;;;;;;;4.35;2.75;;;30.40;87.10;;;;;;4916607;29;20139;-86
2021/07/13 10:39:59;;;;;;;4.55;2.58;;;30.40;86.90;;;;;;4921555;29;20032;-87
2021/07/13 10:43:37;;;;;;;;;;;;;;;;;;;;;
2021/07/13 10:49:56;;;;;;;;;;;;;;;;;;;;;
2021/07/13 10:53:07;;;;;;;5.15;2.90;;;30.00;85.60;;;;;;4929052;29;20091;-86
2021/07/13 10:55:37;;;;;;;5.90;3.13;;;29.90;86.20;;;;;;4928542;29;20062;-86
2021/07/13 10:58:18;;;;;;;5.50;2.72;;;29.90;86.00;;;;;;4939028;28;20042;-86
2021/07/13 11:01:52;;;;;;;5.40;2.90;;;29.90;87.00;;;;;;5005612;28;20022;-86
2021/07/13 11:03:56;;;;;;;6.10;3.05;;;30.00;86.50;;;;;;4994683;28;20474;-87
2021/07/13 11:07:17;;;;;;;;;;;;;;;;;;;;;
2021/07/13 11:09:56;;;;;;;5.03;2.70;;;30.00;85.00;;;;;;5007080;28;20102;-85
2021/07/13 11:12:54;;;;;;;6.45;2.95;;;29.90;85.30;;;;;;4981908;28;20049;-85
2021/07/13 11:24:00;;;;;;;5.45;2.63;;;29.40;84.70;;;;;;5841204;23;20059;-83
2021/07/13 12:38:17;;;;;;;7.70;2.60;;;27.50;81.50;;;;;;5359880;23;20054;-88
2021/07/13 12:40:48;;;;;;;4.43;2.42;;;27.30;81.60;;;;;;4985302;28;20022;-89
2021/07/13 13:49:27;;;;;;;3.08;1.80;;;25.50;77.10;;;;;;5187516;23;20060;-83
2021/07/13 13:59:08;;;;;;;2.53;1.33;;;24.40;76.60;;;;;;4903507;29;20055;-89
2021/07/13 14:02:38;;;;;;;1.25;0.90;;;24.00;76.30;;;;;;4889417;29;20068;-88
2021/07/13 14:19:01;;;;;;;;;;;;;;;;;;;;;
2021/07/13 14:22:18;;;;;;;0.95;0.82;;;21.80;78.40;;;;;;4770903;30;20043;-87
2021/07/13 14:25:36;;;;;;;0.65;0.65;;;21.60;78.40;;;;;;4724112;30;20108;-87
2021/07/13 14:28:08;;;;;;;3.45;0.88;;;21.40;78.00;;;;;;4782081;29;20099;-89
2021/07/13 14:34:18;;;;;;;1.08;0.93;;;21.00;78.00;;;;;;4804368;29;20067;-88
2021/07/13 14:37:31;;;;;;;;;;;;;;;;;;;;;
2021/07/13 14:43:32;;;;;;;2.08;1.15;;;20.10;78.40;;;;;;4916604;29;20473;-88
2021/07/13 14:46:19;;;;;;;1.38;1.10;;;20.00;79.30;;;;;;4908382;29;20031;-88
2021/07/13 14:48:50;;;;;;;1.08;0.80;;;19.80;78.60;;;;;;4908154;29;20386;-88
2021/07/13 14:51:19;;;;;;;1.27;0.98;;;19.50;78.30;;;;;;4905897;29;20091;-88
2021/07/13 14:54:35;;;;;;;0.75;0.75;;;19.30;78.60;;;;;;4921730;29;20020;-88
2021/07/13 14:57:25;;;;;;;3.38;1.40;;;19.20;79.30;;;;;;4901594;29;20081;-87
2021/07/13 15:04:06;;;;;;;3.47;1.10;;;18.10;78.90;;;;;;4923495;29;20042;-87
2021/07/13 15:06:34;;;;;;;0.80;0.80;;;17.90;80.40;;;;;;4908626;29;20048;-87
2021/07/13 15:09:00;;;;;;;0.75;0.75;;;17.70;81.10;;;;;;4923019;29;20038;-84
2021/07/13 15:11:28;;;;;;;3.53;1.15;;;17.60;81.80;;;;;;4923823;29;20028;-86
2021/07/13 15:13:59;;;;;;;2.75;0.82;;;17.40;81.80;;;;;;4923954;29;20111;-86
2021/07/13 15:16:25;;;;;;;4.53;1.15;;;17.40;82.40;;;;;;4936654;29;20028;-87
2021/07/13 15:18:51;;;;;;;1.95;1.08;;;17.30;83.50;;;;;;4941310;29;20028;-84
2021/07/13 15:21:16;;;;;;;2.58;0.98;;;17.30;84.70;;;;;;4924281;29;20046;-88
2021/07/13 15:24:13;;;;;;;2.50;0.70;;;17.20;85.30;;;;;;4925297;29;20035;-89
2021/07/13 15:26:58;;;;;;;;;;;;;;;;;;;;;
2021/07/13 15:29:30;;;;;;;1.63;1.00;;;17.00;87.40;;;;;;4957412;29;20042;-91
2021/07/13 15:42:15;;;;;;;1.45;1.20;;;16.90;90.50;;;;;;4881938;29;20050;-87
2021/07/13 15:47:58;;;;;;;3.80;1.60;;;16.90;91.50;;;;;;4945460;29;20109;-88
2021/07/13 15:54:46;;;;;;;3.47;1.05;;;16.90;92.50;;;;;;4967147;29;20031;-90
2021/07/13 15:57:18;;;;;;;3.53;1.42;;;17.00;93.10;;;;;;4911547;29;20048;-88
2021/07/13 16:00:29;;;;;;;;;;;;;;;;;;;;;
2021/07/13 16:05:45;;;;;;;1.83;1.10;;;17.00;93.80;;;;;;4937661;29;20441;-88
2021/07/13 16:08:11;;;;;;;1.70;1.10;;;16.90;94.00;;;;;;4926618;29;20476;-88
2021/07/13 16:10:37;;;;;;;2.95;1.27;;;16.90;94.40;;;;;;4941456;29;20098;-89
2021/07/13 16:13:13;;;;;;;;;;;;;;;;;;;;;
2021/07/13 16:15:46;;;;;;;3.00;1.20;;;17.00;94.90;;;;;;4942458;29;20083;-89
2021/07/13 16:18:12;;;;;;;1.95;1.30;;;17.00;94.90;;;;;;4940572;29;20032;-88
2021/07/13 16:20:41;;;;;;;2.25;1.40;;;17.00;94.90;;;;;;4924508;29;20026;-90
2021/07/13 16:23:07;;;;;;;3.17;1.60;;;16.90;94.80;;;;;;4924965;29;20036;-88
2021/07/13 16:25:35;;;;;;;3.33;1.65;;;16.90;95.00;;;;;;4938622;29;20034;-88
2021/07/13 16:28:35;;;;;;;2.72;1.55;;;16.90;95.10;;;;;;4940354;29;20039;-87
2021/07/13 16:31:01;;;;;;;3.92;1.60;;;16.90;95.30;;;;;;4922002;29;20047;-87
2021/07/13 16:33:54;;;;;;;7.22;2.45;;;16.90;95.60;;;;;;4938254;29;20031;-86
2021/07/13 16:36:18;;;;;;;2.78;1.60;;;16.90;95.80;;;;;;4936049;29;20044;-88
2021/07/13 16:38:45;;;;;;;1.88;1.60;;;17.00;96.00;;;;;;4922666;29;20374;-87
2021/07/13 16:44:46;;;;;;;;;;;;;;;;;;;;;
2021/07/13 16:47:25;;;;;;;3.35;1.73;;;17.20;96.10;;;;;;4938985;29;20123;-90
2021/07/13 16:50:33;;;;;;;1.75;1.40;;;17.30;96.10;;;;;;4921628;29;20055;-87
2021/07/13 16:53:06;;;;;;;1.15;1.05;;;17.10;96.10;;;;;;4921757;29;20046;-88
2021/07/13 16:55:33;;;;;;;3.08;1.60;;;17.30;96.20;;;;;;4921552;29;20048;-88
2021/07/13 16:58:04;;;;;;;1.65;1.50;;;17.20;96.10;;;;;;4921808;29;20031;-88
2021/07/13 17:04:25;;;;;;;2.92;1.55;;;17.20;96.20;;;;;;4921325;29;20380;-86
2021/07/13 18:13:42;;;;;;;;;;;;;;;;;;;;;
2021/07/13 18:16:45;;;;;;;;;;;;;;;;;;;;;
2021/07/13 18:19:47;;;;;;;2.95;2.03;;;17.20;97.40;;;;;;4959401;28;20042;-87
2021/07/13 18:22:18;;;;;;;5.30;2.10;;;17.30;97.50;;;;;;4971624;28;20034;-86
2021/07/13 18:24:50;;;;;;;7.00;2.30;;;17.30;97.30;;;;;;4959147;28;20030;-93
2021/07/13 18:27:44;;;;;;;4.75;2.20;;;17.30;97.10;;;;;;4959566;28;20058;-89
2021/07/13 18:30:28;;;;;;;7.53;2.30;;;17.20;97.10;;;;;;4958453;28;20043;-89
2021/07/13 18:32:54;;;;;;;4.97;2.45;;;17.20;97.20;;;;;;4975951;28;20383;-88
2021/07/13 18:35:24;;;;;;;4.47;2.33;;;17.20;97.30;;;;;;4963938;28;20027;-89
2021/07/13 18:37:50;;;;;;;5.47;2.60;;;17.20;97.30;;;;;;4959083;29;20467;-89
2021/07/13 18:40:16;;;;;;;5.22;2.50;;;17.20;97.30;;;;;;4976013;28;20019;-89
2021/07/13 18:42:41;;;;;;;5.53;2.60;;;17.10;97.20;;;;;;4953204;29;20030;-89
2021/07/13 18:45:07;;;;;;;5.18;2.47;;;17.10;97.30;;;;;;4957825;29;20035;-89
2021/07/13 18:47:33;;;;;;;5.75;2.90;;;17.10;97.40;;;;;;4956086;28;20114;-89
2021/07/13 18:49:59;;;;;;;4.95;2.70;;;17.10;97.30;;;;;;4967691;28;20027;-88
2021/07/13 18:52:26;;;;;;;5.78;2.70;;;17.10;97.30;;;;;;4958421;28;20062;-88
2021/07/13 18:54:52;;;;;;;8.77;3.15;;;17.10;97.30;;;;;;4957799;28;20054;-87
2021/07/13 18:57:23;;;;;;;6.65;2.72;;;17.10;97.40;;;;;;4958659;28;20481;-87
2021/07/13 18:59:52;;;;;;;8.75;3.25;;;17.10;97.40;;;;;;4958209;28;20034;-89
2021/07/13 19:02:19;;;;;;;6.38;3.00;;;17.00;97.30;;;;;;4975298;28;20058;-88
2021/07/13 19:04:44;;;;;;;8.18;3.30;;;17.00;97.30;;;;;;4939018;28;20137;-88
2021/07/13 19:07:11;;;;;;;7.60;3.30;;;17.00;97.30;;;;;;4957475;28;20058;-88
2021/07/13 19:09:36;;;;;;;12.85;4.45;;;17.00;97.40;;;;;;4974832;28;20479;-89
2021/07/13 19:12:06;;;;;;;7.72;3.45;;;17.00;97.20;;;;;;4974767;28;20031;-88
2021/07/13 19:14:39;;;;;;;9.55;3.88;;;16.90;97.30;;;;;;4971882;28;20379;-88
2021/07/13 19:17:05;;;;;;;10.20;5.25;;;17.00;97.30;;;;;;4941811;29;20383;-88
2021/07/13 19:19:32;;;;;;;9.25;4.88;;;16.90;97.30;;;;;;4967229;28;20027;-89
2021/07/13 19:22:00;;;;;;;10.05;4.60;;;16.80;97.40;;;;;;4960532;28;20022;-88
2021/07/13 19:24:30;;;;;;;8.65;4.40;;;16.80;97.40;;;;;;4978705;28;20023;-87
2021/07/13 19:26:58;;;;;;;8.15;4.30;;;16.80;97.30;;;;;;4981874;28;20023;-88
2021/07/13 19:29:24;;;;;;;9.43;4.70;;;16.80;97.40;;;;;;4963062;28;20403;-88
2021/07/13 19:31:56;;;;;;;9.35;4.97;;;16.80;97.50;;;;;;4980651;28;20023;-85
2021/07/13 19:37:30;;;;;;;10.50;5.43;;;16.70;97.50;;;;;;4964885;28;20093;-83
2021/07/13 19:40:00;;;;;;;9.00;4.97;;;16.70;97.50;;;;;;4961515;28;20035;-85
2021/07/13 19:42:29;;;;;;;11.60;5.63;;;16.70;97.50;;;;;;4962155;28;20023;-85